sensor_id;sensor_type;location;lat;lon;timestamp;temperature;humidity
18781;DHT22;9519;51.890;8.970;2022-09-09T00:04:39;16.10;96.30
18781;DHT22;9519;51.890;8.970;2022-09-09T00:09:46;16.10;96.50
18781;DHT22;9519;51.890;8.970;2022-09-09T00:14:53;16.00;96.60
18781;DHT22;9519;51.890;8.970;2022-09-09T00:20:02;16.00;96.70
18781;DHT22;9519;51.890;8.970;2022-09-09T00:25:18;16.00;96.80
18781;DHT22;9519;51.890;8.970;2022-09-09T00:30:28;15.90;96.80
18781;DHT22;9519;51.890;8.970;2022-09-09T00:35:38;15.90;96.90
18781;DHT22;9519;51.890;8.970;2022-09-09T00:40:49;15.80;96.90
18781;DHT22;9519;51.890;8.970;2022-09-09T00:51:50;15.70;97.10
18781;DHT22;9519;51.890;8.970;2022-09-09T00:57:12;15.70;97.20
18781;DHT22;9519;51.890;8.970;2022-09-09T01:02:28;15.60;97.20
18781;DHT22;9519;51.890;8.970;2022-09-09T01:07:33;15.60;97.70
18781;DHT22;9519;51.890;8.970;2022-09-09T01:12:40;15.60;97.50
18781;DHT22;9519;51.890;8.970;2022-09-09T01:17:52;15.60;97.60
18781;DHT22;9519;51.890;8.970;2022-09-09T01:23:16;15.60;97.80
18781;DHT22;9519;51.890;8.970;2022-09-09T01:28:34;15.60;98.10
18781;DHT22;9519;51.890;8.970;2022-09-09T01:33:37;15.70;98.60
18781;DHT22;9519;51.890;8.970;2022-09-09T01:38:40;15.70;98.70
18781;DHT22;9519;51.890;8.970;2022-09-09T01:43:43;15.80;98.80
18781;DHT22;9519;51.890;8.970;2022-09-09T01:48:45;15.80;98.90
18781;DHT22;9519;51.890;8.970;2022-09-09T01:53:48;15.80;99.00
18781;DHT22;9519;51.890;8.970;2022-09-09T01:59:05;15.80;99.10
18781;DHT22;9519;51.890;8.970;2022-09-09T02:04:27;15.70;99.20
18781;DHT22;9519;51.890;8.970;2022-09-09T02:09:38;15.70;99.30
18781;DHT22;9519;51.890;8.970;2022-09-09T02:14:48;15.70;99.40
18781;DHT22;9519;51.890;8.970;2022-09-09T02:19:58;15.70;99.70
18781;DHT22;9519;51.890;8.970;2022-09-09T02:25:09;15.70;99.80
18781;DHT22;9519;51.890;8.970;2022-09-09T02:30:15;15.70;99.90
18781;DHT22;9519;51.890;8.970;2022-09-09T02:35:21;15.70;99.90
18781;DHT22;9519;51.890;8.970;2022-09-09T02:40:26;15.70;99.90
18781;DHT22;9519;51.890;8.970;2022-09-09T02:45:36;15.70;99.90
18781;DHT22;9519;51.890;8.970;2022-09-09T02:50:50;15.60;99.90
18781;DHT22;9519;51.890;8.970;2022-09-09T02:56:00;15.60;99.90
18781;DHT22;9519;51.890;8.970;2022-09-09T03:01:09;15.70;99.90
18781;DHT22;9519;51.890;8.970;2022-09-09T03:06:11;15.60;99.90
18781;DHT22;9519;51.890;8.970;2022-09-09T03:11:14;15.60;99.90
18781;DHT22;9519;51.890;8.970;2022-09-09T03:16:18;15.70;99.90
18781;DHT22;9519;51.890;8.970;2022-09-09T03:21:20;15.70;99.90
18781;DHT22;9519;51.890;8.970;2022-09-09T03:26:22;15.70;99.90
18781;DHT22;9519;51.890;8.970;2022-09-09T03:31:25;15.70;99.90
18781;DHT22;9519;51.890;8.970;2022-09-09T03:36:31;15.70;99.90
18781;DHT22;9519;51.890;8.970;2022-09-09T03:41:33;15.70;99.90
18781;DHT22;9519;51.890;8.970;2022-09-09T03:46:36;15.70;99.90
18781;DHT22;9519;51.890;8.970;2022-09-09T03:51:38;15.70;99.90
18781;DHT22;9519;51.890;8.970;2022-09-09T03:56:41;15.60;99.90
18781;DHT22;9519;51.890;8.970;2022-09-09T04:01:44;15.60;99.90
18781;DHT22;9519;51.890;8.970;2022-09-09T04:06:47;15.60;99.90
18781;DHT22;9519;51.890;8.970;2022-09-09T04:11:51;15.60;99.90
18781;DHT22;9519;51.890;8.970;2022-09-09T04:16:55;15.60;99.90
18781;DHT22;9519;51.890;8.970;2022-09-09T04:21:58;15.60;99.90
18781;DHT22;9519;51.890;8.970;2022-09-09T04:27:00;15.60;99.90
18781;DHT22;9519;51.890;8.970;2022-09-09T04:32:04;15.60;99.90
18781;DHT22;9519;51.890;8.970;2022-09-09T04:37:06;15.50;99.90
18781;DHT22;9519;51.890;8.970;2022-09-09T04:42:08;15.60;99.90
18781;DHT22;9519;51.890;8.970;2022-09-09T04:47:11;15.60;99.90
18781;DHT22;9519;51.890;8.970;2022-09-09T04:52:15;15.60;99.90
18781;DHT22;9519;51.890;8.970;2022-09-09T04:57:18;15.60;99.90
18781;DHT22;9519;51.890;8.970;2022-09-09T05:02:22;15.60;99.90
18781;DHT22;9519;51.890;8.970;2022-09-09T05:07:24;15.60;99.90
18781;DHT22;9519;51.890;8.970;2022-09-09T05:12:29;15.60;99.90
18781;DHT22;9519;51.890;8.970;2022-09-09T05:17:34;15.60;99.90
18781;DHT22;9519;51.890;8.970;2022-09-09T05:22:36;15.60;99.90
18781;DHT22;9519;51.890;8.970;2022-09-09T05:27:38;15.60;99.90
18781;DHT22;9519;51.890;8.970;2022-09-09T05:32:41;15.60;99.90
18781;DHT22;9519;51.890;8.970;2022-09-09T05:37:43;15.60;99.90
18781;DHT22;9519;51.890;8.970;2022-09-09T05:42:46;15.60;99.90
18781;DHT22;9519;51.890;8.970;2022-09-09T05:47:52;15.60;99.90
18781;DHT22;9519;51.890;8.970;2022-09-09T05:52:55;15.70;99.90
18781;DHT22;9519;51.890;8.970;2022-09-09T05:57:57;15.70;99.90
18781;DHT22;9519;51.890;8.970;2022-09-09T06:03:01;15.80;99.90
18781;DHT22;9519;51.890;8.970;2022-09-09T06:08:04;15.80;99.90
18781;DHT22;9519;51.890;8.970;2022-09-09T06:13:06;15.80;99.90
18781;DHT22;9519;51.890;8.970;2022-09-09T06:18:11;15.90;99.90
18781;DHT22;9519;51.890;8.970;2022-09-09T06:23:13;16.00;99.90
18781;DHT22;9519;51.890;8.970;2022-09-09T06:28:15;16.00;99.90
18781;DHT22;9519;51.890;8.970;2022-09-09T06:33:19;16.20;99.90
18781;DHT22;9519;51.890;8.970;2022-09-09T06:38:22;16.30;99.90
18781;DHT22;9519;51.890;8.970;2022-09-09T06:43:25;16.50;99.90
18781;DHT22;9519;51.890;8.970;2022-09-09T06:48:29;16.70;99.90
18781;DHT22;9519;51.890;8.970;2022-09-09T06:53:32;16.80;99.90
18781;DHT22;9519;51.890;8.970;2022-09-09T06:58:35;16.90;99.90
18781;DHT22;9519;51.890;8.970;2022-09-09T07:03:38;16.90;99.90
18781;DHT22;9519;51.890;8.970;2022-09-09T07:08:41;17.00;99.90
18781;DHT22;9519;51.890;8.970;2022-09-09T07:13:43;17.00;99.90
18781;DHT22;9519;51.890;8.970;2022-09-09T07:18:47;17.10;99.90
18781;DHT22;9519;51.890;8.970;2022-09-09T07:23:50;17.20;99.90
18781;DHT22;9519;51.890;8.970;2022-09-09T07:28:53;17.20;99.90
18781;DHT22;9519;51.890;8.970;2022-09-09T07:33:58;17.30;99.90
18781;DHT22;9519;51.890;8.970;2022-09-09T07:39:03;17.40;99.90
18781;DHT22;9519;51.890;8.970;2022-09-09T07:44:08;17.40;99.90
18781;DHT22;9519;51.890;8.970;2022-09-09T07:49:14;17.50;99.90
18781;DHT22;9519;51.890;8.970;2022-09-09T07:54:17;17.50;99.90
18781;DHT22;9519;51.890;8.970;2022-09-09T07:59:23;17.60;99.90
18781;DHT22;9519;51.890;8.970;2022-09-09T08:04:27;17.60;99.90
18781;DHT22;9519;51.890;8.970;2022-09-09T08:09:30;17.70;99.90
18781;DHT22;9519;51.890;8.970;2022-09-09T08:14:32;17.90;99.90
18781;DHT22;9519;51.890;8.970;2022-09-09T08:19:36;18.00;99.90
18781;DHT22;9519;51.890;8.970;2022-09-09T08:24:38;18.10;99.90
18781;DHT22;9519;51.890;8.970;2022-09-09T08:29:41;18.20;99.90
18781;DHT22;9519;51.890;8.970;2022-09-09T08:34:44;18.30;99.90
18781;DHT22;9519;51.890;8.970;2022-09-09T08:39:46;18.40;99.90
18781;DHT22;9519;51.890;8.970;2022-09-09T08:45:00;18.50;99.90
18781;DHT22;9519;51.890;8.970;2022-09-09T08:50:22;18.50;99.90
18781;DHT22;9519;51.890;8.970;2022-09-09T08:55:38;18.50;99.90
18781;DHT22;9519;51.890;8.970;2022-09-09T09:00:57;18.60;99.90
18781;DHT22;9519;51.890;8.970;2022-09-09T09:06:24;18.60;99.90
18781;DHT22;9519;51.890;8.970;2022-09-09T09:11:35;18.80;99.90
18781;DHT22;9519;51.890;8.970;2022-09-09T09:16:52;18.90;99.40
18781;DHT22;9519;51.890;8.970;2022-09-09T09:22:03;19.00;98.70
18781;DHT22;9519;51.890;8.970;2022-09-09T09:27:13;19.20;98.30
18781;DHT22;9519;51.890;8.970;2022-09-09T09:32:21;19.30;97.40
18781;DHT22;9519;51.890;8.970;2022-09-09T09:37:29;19.40;97.00
18781;DHT22;9519;51.890;8.970;2022-09-09T09:42:34;19.40;96.80
18781;DHT22;9519;51.890;8.970;2022-09-09T09:47:37;19.60;96.60
18781;DHT22;9519;51.890;8.970;2022-09-09T09:52:54;19.70;96.10
18781;DHT22;9519;51.890;8.970;2022-09-09T09:58:03;19.80;95.50
18781;DHT22;9519;51.890;8.970;2022-09-09T10:03:17;19.90;94.60
18781;DHT22;9519;51.890;8.970;2022-09-09T10:08:25;19.80;94.50
18781;DHT22;9519;51.890;8.970;2022-09-09T10:13:31;19.80;94.40
18781;DHT22;9519;51.890;8.970;2022-09-09T10:18:49;19.70;94.60
18781;DHT22;9519;51.890;8.970;2022-09-09T10:24:21;19.80;94.70
18781;DHT22;9519;51.890;8.970;2022-09-09T10:29:52;19.90;95.00
18781;DHT22;9519;51.890;8.970;2022-09-09T10:35:12;20.10;93.80
18781;DHT22;9519;51.890;8.970;2022-09-09T10:40:27;20.40;92.50
18781;DHT22;9519;51.890;8.970;2022-09-09T10:45:39;20.60;92.20
18781;DHT22;9519;51.890;8.970;2022-09-09T10:50:54;20.80;91.60
18781;DHT22;9519;51.890;8.970;2022-09-09T10:56:07;21.10;91.40
18781;DHT22;9519;51.890;8.970;2022-09-09T11:01:17;21.10;90.90
18781;DHT22;9519;51.890;8.970;2022-09-09T11:06:29;21.20;90.00
18781;DHT22;9519;51.890;8.970;2022-09-09T11:11:43;21.30;89.60
18781;DHT22;9519;51.890;8.970;2022-09-09T11:16:53;21.50;87.90
18781;DHT22;9519;51.890;8.970;2022-09-09T11:22:02;21.60;87.20
18781;DHT22;9519;51.890;8.970;2022-09-09T11:27:13;21.70;85.70
18781;DHT22;9519;51.890;8.970;2022-09-09T11:32:34;21.90;85.00
18781;DHT22;9519;51.890;8.970;2022-09-09T11:43:33;22.00;84.90
18781;DHT22;9519;51.890;8.970;2022-09-09T11:48:43;22.10;83.90
18781;DHT22;9519;51.890;8.970;2022-09-09T11:53:51;22.20;82.80
18781;DHT22;9519;51.890;8.970;2022-09-09T11:58:59;22.10;82.40
18781;DHT22;9519;51.890;8.970;2022-09-09T12:04:15;22.20;83.50
18781;DHT22;9519;51.890;8.970;2022-09-09T12:09:45;22.40;82.90
18781;DHT22;9519;51.890;8.970;2022-09-09T12:14:59;22.60;81.90
18781;DHT22;9519;51.890;8.970;2022-09-09T12:20:18;22.50;79.50
18781;DHT22;9519;51.890;8.970;2022-09-09T12:25:29;22.50;79.30
18781;DHT22;9519;51.890;8.970;2022-09-09T12:30:45;22.50;78.50
18781;DHT22;9519;51.890;8.970;2022-09-09T12:35:57;22.50;77.90
18781;DHT22;9519;51.890;8.970;2022-09-09T12:41:01;22.30;77.00
18781;DHT22;9519;51.890;8.970;2022-09-09T12:46:09;22.10;78.80
18781;DHT22;9519;51.890;8.970;2022-09-09T12:51:28;22.20;79.50
18781;DHT22;9519;51.890;8.970;2022-09-09T12:56:32;22.40;76.40
18781;DHT22;9519;51.890;8.970;2022-09-09T13:01:37;22.60;75.20
18781;DHT22;9519;51.890;8.970;2022-09-09T13:06:39;22.80;74.90
18781;DHT22;9519;51.890;8.970;2022-09-09T13:11:42;22.80;74.20
18781;DHT22;9519;51.890;8.970;2022-09-09T13:16:57;22.90;75.10
18781;DHT22;9519;51.890;8.970;2022-09-09T13:22:11;23.00;73.00
18781;DHT22;9519;51.890;8.970;2022-09-09T13:27:27;23.00;73.20
18781;DHT22;9519;51.890;8.970;2022-09-09T13:32:33;23.00;74.00
18781;DHT22;9519;51.890;8.970;2022-09-09T13:37:36;23.10;73.60
18781;DHT22;9519;51.890;8.970;2022-09-09T13:42:41;23.10;72.60
18781;DHT22;9519;51.890;8.970;2022-09-09T13:47:45;23.00;72.60
18781;DHT22;9519;51.890;8.970;2022-09-09T13:52:48;22.90;72.60
18781;DHT22;9519;51.890;8.970;2022-09-09T13:57:52;23.00;74.20
18781;DHT22;9519;51.890;8.970;2022-09-09T14:02:57;23.30;72.90
18781;DHT22;9519;51.890;8.970;2022-09-09T14:08:03;23.60;71.20
18781;DHT22;9519;51.890;8.970;2022-09-09T14:13:07;23.80;68.10
18781;DHT22;9519;51.890;8.970;2022-09-09T14:18:11;23.80;67.10
18781;DHT22;9519;51.890;8.970;2022-09-09T14:23:15;23.80;66.90
18781;DHT22;9519;51.890;8.970;2022-09-09T14:28:17;23.80;67.90
18781;DHT22;9519;51.890;8.970;2022-09-09T14:33:21;23.70;67.30
18781;DHT22;9519;51.890;8.970;2022-09-09T14:38:23;23.80;68.10
18781;DHT22;9519;51.890;8.970;2022-09-09T14:43:25;24.00;68.30
18781;DHT22;9519;51.890;8.970;2022-09-09T14:48:29;24.00;67.90
18781;DHT22;9519;51.890;8.970;2022-09-09T14:53:31;24.00;67.30
18781;DHT22;9519;51.890;8.970;2022-09-09T14:58:33;24.10;67.40
18781;DHT22;9519;51.890;8.970;2022-09-09T15:03:37;24.10;65.90
18781;DHT22;9519;51.890;8.970;2022-09-09T15:08:41;24.30;64.70
18781;DHT22;9519;51.890;8.970;2022-09-09T15:13:44;24.30;64.70
18781;DHT22;9519;51.890;8.970;2022-09-09T15:18:51;24.80;65.00
18781;DHT22;9519;51.890;8.970;2022-09-09T15:23:54;25.10;63.50
18781;DHT22;9519;51.890;8.970;2022-09-09T15:28:58;25.10;64.70
18781;DHT22;9519;51.890;8.970;2022-09-09T15:34:03;25.00;63.90
18781;DHT22;9519;51.890;8.970;2022-09-09T15:39:09;24.70;63.20
18781;DHT22;9519;51.890;8.970;2022-09-09T15:44:13;24.40;62.10
18781;DHT22;9519;51.890;8.970;2022-09-09T15:49:19;24.10;62.00
18781;DHT22;9519;51.890;8.970;2022-09-09T15:54:26;23.80;62.40
18781;DHT22;9519;51.890;8.970;2022-09-09T15:59:29;23.70;63.20
18781;DHT22;9519;51.890;8.970;2022-09-09T16:04:34;23.50;63.00
18781;DHT22;9519;51.890;8.970;2022-09-09T16:09:36;23.30;63.50
18781;DHT22;9519;51.890;8.970;2022-09-09T16:14:38;23.20;63.60
18781;DHT22;9519;51.890;8.970;2022-09-09T16:19:42;23.00;64.00
18781;DHT22;9519;51.890;8.970;2022-09-09T16:24:45;22.80;63.90
18781;DHT22;9519;51.890;8.970;2022-09-09T16:29:47;22.70;64.00
18781;DHT22;9519;51.890;8.970;2022-09-09T16:34:53;22.60;64.40
18781;DHT22;9519;51.890;8.970;2022-09-09T16:39:55;22.50;65.40
18781;DHT22;9519;51.890;8.970;2022-09-09T16:44:57;22.40;65.30
18781;DHT22;9519;51.890;8.970;2022-09-09T16:50:01;22.30;66.20
18781;DHT22;9519;51.890;8.970;2022-09-09T16:55:03;22.20;69.90
18781;DHT22;9519;51.890;8.970;2022-09-09T17:00:07;21.60;73.20
18781;DHT22;9519;51.890;8.970;2022-09-09T17:05:11;19.80;75.90
18781;DHT22;9519;51.890;8.970;2022-09-09T17:10:13;18.40;80.20
18781;DHT22;9519;51.890;8.970;2022-09-09T17:15:15;17.60;83.60
18781;DHT22;9519;51.890;8.970;2022-09-09T17:20:19;17.10;86.20
18781;DHT22;9519;51.890;8.970;2022-09-09T17:25:22;16.80;88.80
18781;DHT22;9519;51.890;8.970;2022-09-09T17:30:25;16.60;90.30
18781;DHT22;9519;51.890;8.970;2022-09-09T17:35:29;16.40;90.80
18781;DHT22;9519;51.890;8.970;2022-09-09T17:40:32;16.30;91.60
18781;DHT22;9519;51.890;8.970;2022-09-09T17:45:34;16.20;91.90
18781;DHT22;9519;51.890;8.970;2022-09-09T17:50:38;16.20;92.40
18781;DHT22;9519;51.890;8.970;2022-09-09T17:55:40;16.20;92.90
18781;DHT22;9519;51.890;8.970;2022-09-09T18:00:42;16.20;93.30
18781;DHT22;9519;51.890;8.970;2022-09-09T18:05:45;16.20;93.90
18781;DHT22;9519;51.890;8.970;2022-09-09T18:10:51;16.20;94.30
18781;DHT22;9519;51.890;8.970;2022-09-09T18:15:56;16.20;94.90
18781;DHT22;9519;51.890;8.970;2022-09-09T18:21:01;16.20;95.40
18781;DHT22;9519;51.890;8.970;2022-09-09T18:26:07;16.10;95.70
18781;DHT22;9519;51.890;8.970;2022-09-09T18:31:15;16.10;96.00
18781;DHT22;9519;51.890;8.970;2022-09-09T18:36:22;16.10;96.50
18781;DHT22;9519;51.890;8.970;2022-09-09T18:41:27;16.00;97.10
18781;DHT22;9519;51.890;8.970;2022-09-09T18:46:33;16.10;96.80
18781;DHT22;9519;51.890;8.970;2022-09-09T18:51:39;16.10;96.80
18781;DHT22;9519;51.890;8.970;2022-09-09T18:56:42;16.10;97.00
18781;DHT22;9519;51.890;8.970;2022-09-09T19:01:45;16.20;97.20
18781;DHT22;9519;51.890;8.970;2022-09-09T19:06:49;16.10;97.30
18781;DHT22;9519;51.890;8.970;2022-09-09T19:11:57;16.10;97.30
18781;DHT22;9519;51.890;8.970;2022-09-09T19:17:00;16.10;97.40
18781;DHT22;9519;51.890;8.970;2022-09-09T19:22:04;16.10;97.60
18781;DHT22;9519;51.890;8.970;2022-09-09T19:27:11;16.10;97.70
18781;DHT22;9519;51.890;8.970;2022-09-09T19:32:13;16.20;97.90
18781;DHT22;9519;51.890;8.970;2022-09-09T19:37:16;16.20;98.10
18781;DHT22;9519;51.890;8.970;2022-09-09T19:42:18;16.20;98.40
18781;DHT22;9519;51.890;8.970;2022-09-09T19:47:20;16.20;98.50
18781;DHT22;9519;51.890;8.970;2022-09-09T19:52:25;16.20;98.70
18781;DHT22;9519;51.890;8.970;2022-09-09T19:57:27;16.20;98.90
18781;DHT22;9519;51.890;8.970;2022-09-09T20:02:30;16.20;99.00
18781;DHT22;9519;51.890;8.970;2022-09-09T20:07:34;16.20;99.10
18781;DHT22;9519;51.890;8.970;2022-09-09T20:12:36;16.20;99.30
18781;DHT22;9519;51.890;8.970;2022-09-09T20:17:38;16.20;99.40
18781;DHT22;9519;51.890;8.970;2022-09-09T20:22:42;16.20;99.50
18781;DHT22;9519;51.890;8.970;2022-09-09T20:27:44;16.20;99.70
18781;DHT22;9519;51.890;8.970;2022-09-09T20:32:46;16.10;99.70
18781;DHT22;9519;51.890;8.970;2022-09-09T20:37:49;16.20;99.90
18781;DHT22;9519;51.890;8.970;2022-09-09T20:42:51;16.20;99.90
18781;DHT22;9519;51.890;8.970;2022-09-09T20:47:54;16.10;99.90
18781;DHT22;9519;51.890;8.970;2022-09-09T20:52:57;16.10;99.90
18781;DHT22;9519;51.890;8.970;2022-09-09T20:58:00;16.10;99.90
18781;DHT22;9519;51.890;8.970;2022-09-09T21:03:02;16.10;99.90
18781;DHT22;9519;51.890;8.970;2022-09-09T21:08:05;16.10;99.90
18781;DHT22;9519;51.890;8.970;2022-09-09T21:13:08;16.00;99.90
18781;DHT22;9519;51.890;8.970;2022-09-09T21:18:10;16.00;99.90
18781;DHT22;9519;51.890;8.970;2022-09-09T21:23:15;16.00;99.90
18781;DHT22;9519;51.890;8.970;2022-09-09T21:28:18;16.00;99.90
18781;DHT22;9519;51.890;8.970;2022-09-09T21:33:22;16.00;99.90
18781;DHT22;9519;51.890;8.970;2022-09-09T21:38:29;15.90;99.90
18781;DHT22;9519;51.890;8.970;2022-09-09T21:43:31;15.90;99.90
18781;DHT22;9519;51.890;8.970;2022-09-09T21:48:33;15.90;99.90
18781;DHT22;9519;51.890;8.970;2022-09-09T21:53:37;15.80;99.90
18781;DHT22;9519;51.890;8.970;2022-09-09T21:58:39;15.80;99.90
18781;DHT22;9519;51.890;8.970;2022-09-09T22:03:42;15.80;99.90
18781;DHT22;9519;51.890;8.970;2022-09-09T22:08:46;15.70;99.90
18781;DHT22;9519;51.890;8.970;2022-09-09T22:13:48;15.70;99.90
18781;DHT22;9519;51.890;8.970;2022-09-09T22:18:53;15.60;99.90
18781;DHT22;9519;51.890;8.970;2022-09-09T22:24:00;15.60;99.90
18781;DHT22;9519;51.890;8.970;2022-09-09T22:29:05;15.50;99.90
18781;DHT22;9519;51.890;8.970;2022-09-09T22:34:08;15.50;99.90
18781;DHT22;9519;51.890;8.970;2022-09-09T22:39:11;15.50;99.90
18781;DHT22;9519;51.890;8.970;2022-09-09T22:44:13;15.50;99.90
18781;DHT22;9519;51.890;8.970;2022-09-09T22:49:16;15.50;99.90
18781;DHT22;9519;51.890;8.970;2022-09-09T22:54:21;15.50;99.90
18781;DHT22;9519;51.890;8.970;2022-09-09T22:59:23;15.50;99.90
18781;DHT22;9519;51.890;8.970;2022-09-09T23:04:26;15.50;99.90
18781;DHT22;9519;51.890;8.970;2022-09-09T23:09:29;15.40;99.90
18781;DHT22;9519;51.890;8.970;2022-09-09T23:14:31;15.40;99.90
18781;DHT22;9519;51.890;8.970;2022-09-09T23:19:33;15.40;99.90
18781;DHT22;9519;51.890;8.970;2022-09-09T23:24:38;15.40;99.90
18781;DHT22;9519;51.890;8.970;2022-09-09T23:29:40;15.40;99.90
18781;DHT22;9519;51.890;8.970;2022-09-09T23:34:43;15.30;99.90
18781;DHT22;9519;51.890;8.970;2022-09-09T23:39:49;15.30;99.90
18781;DHT22;9519;51.890;8.970;2022-09-09T23:44:51;15.30;99.90
18781;DHT22;9519;51.890;8.970;2022-09-09T23:49:53;15.20;99.90
18781;DHT22;9519;51.890;8.970;2022-09-09T23:54:57;15.20;99.90
18781;DHT22;9519;51.890;8.970;2022-09-09T23:59:59;15.10;99.90
